Time,TemperatureF,DewpointF,PressureIn,WindDirection,WindDirectionDegrees,WindSpeedMPH,WindSpeedGustMPH,Humidity,HourlyPrecipIn,Conditions,Clouds,dailyrainin,SoftwareType,DateUTC
2013-04-20 00:04:00,50.4,35.0,30.18,West,281,0.0,-999.0,55,-99.99,,,0.00,weatherlink.com 1.10,2013-04-20 05:04:00,
2013-04-20 00:19:00,50.0,34.0,30.18,West,281,0.0,-999.0,55,-99.99,,,0.00,weatherlink.com 1.10,2013-04-20 05:19:00,
2013-04-20 00:34:00,50.5,33.0,30.18,SE,137,0.0,-999.0,52,-99.99,,,0.00,weatherlink.com 1.10,2013-04-20 05:34:00,
2013-04-20 00:49:00,50.4,33.0,30.18,SE,137,0.0,-999.0,52,-99.99,,,0.00,weatherlink.com 1.10,2013-04-20 05:49:00,
2013-04-20 01:04:00,50.2,33.0,30.17,SE,137,1.0,-999.0,52,-99.99,,,0.00,weatherlink.com 1.10,2013-04-20 06:04:00,
2013-04-20 01:19:00,50.0,33.0,30.17,SE,141,0.0,-999.0,52,-99.99,,,0.00,weatherlink.com 1.10,2013-04-20 06:19:00,
2013-04-20 01:34:00,49.5,33.0,30.17,SE,141,0.0,-999.0,54,-99.99,,,0.00,weatherlink.com 1.10,2013-04-20 06:34:00,
2013-04-20 01:49:00,49.1,34.0,30.16,SE,128,0.0,-999.0,56,-99.99,,,0.00,weatherlink.com 1.10,2013-04-20 06:49:00,
2013-04-20 02:04:00,48.7,34.0,30.16,SE,130,0.0,-999.0,57,-99.99,,,0.00,weatherlink.com 1.10,2013-04-20 07:04:00,
2013-04-20 02:19:00,48.3,34.0,30.16,SE,125,0.0,-999.0,58,-99.99,,,0.00,weatherlink.com 1.10,2013-04-20 07:19:00,
2013-04-20 02:34:00,48.3,34.0,30.16,SE,125,0.0,-999.0,58,-99.99,,,0.00,weatherlink.com 1.10,2013-04-20 07:34:00,
2013-04-20 02:49:00,48.5,34.0,30.15,East,101,0.0,-999.0,57,-99.99,,,0.00,weatherlink.com 1.10,2013-04-20 07:49:00,
2013-04-20 03:04:00,48.4,34.0,30.16,ESE,118,0.0,-999.0,58,-99.99,,,0.00,weatherlink.com 1.10,2013-04-20 08:04:00,
2013-04-20 03:19:00,48.0,34.0,30.16,SE,125,0.0,-999.0,59,-99.99,,,0.00,weatherlink.com 1.10,2013-04-20 08:19:00,
2013-04-20 03:34:00,47.4,34.0,30.16,SE,125,0.0,-999.0,61,-99.99,,,0.00,weatherlink.com 1.10,2013-04-20 08:34:00,
2013-04-20 03:49:00,46.9,34.0,30.15,SE,125,0.0,-999.0,62,-99.99,,,0.00,weatherlink.com 1.10,2013-04-20 08:49:00,
2013-04-20 04:04:00,46.4,34.0,30.15,SE,125,0.0,-999.0,63,-99.99,,,0.00,weatherlink.com 1.10,2013-04-20 09:04:00,
2013-04-20 04:19:00,46.1,33.0,30.15,SE,125,0.0,-999.0,61,-99.99,,,0.00,weatherlink.com 1.10,2013-04-20 09:19:00,
2013-04-20 04:34:00,46.4,33.0,30.15,SE,125,0.0,-999.0,59,-99.99,,,0.00,weatherlink.com 1.10,2013-04-20 09:34:00,
2013-04-20 04:49:00,46.3,32.0,30.15,SE,125,0.0,-999.0,59,-99.99,,,0.00,weatherlink.com 1.10,2013-04-20 09:49:00,
2013-04-20 05:04:00,46.4,33.0,30.14,SE,125,0.0,-999.0,59,-99.99,,,0.00,weatherlink.com 1.10,2013-04-20 10:04:00,
2013-04-20 05:19:00,47.0,32.0,30.14,SE,142,0.0,-999.0,57,-99.99,,,0.00,weatherlink.com 1.10,2013-04-20 10:19:00,
2013-04-20 05:34:00,47.2,32.0,30.14,SE,142,0.0,-999.0,56,-99.99,,,0.00,weatherlink.com 1.10,2013-04-20 10:34:00,
2013-04-20 05:49:00,47.3,32.0,30.13,SE,141,0.0,-999.0,56,-99.99,,,0.00,weatherlink.com 1.10,2013-04-20 10:49:00,
2013-04-20 06:04:00,47.2,32.0,30.13,SE,141,0.0,-999.0,56,-99.99,,,0.00,weatherlink.com 1.10,2013-04-20 11:04:00,
2013-04-20 06:19:00,47.0,32.0,30.13,SE,142,0.0,-999.0,57,-99.99,,,0.00,weatherlink.com 1.10,2013-04-20 11:19:00,
2013-04-20 06:34:00,46.4,33.0,30.14,SE,142,0.0,-999.0,59,-99.99,,,0.00,weatherlink.com 1.10,2013-04-20 11:34:00,
2013-04-20 06:49:00,45.7,33.0,30.14,SE,141,0.0,-999.0,61,-99.99,,,0.00,weatherlink.com 1.10,2013-04-20 11:49:00,
2013-04-20 07:04:00,45.3,33.0,30.14,SE,142,0.0,-999.0,62,-99.99,,,0.00,weatherlink.com 1.10,2013-04-20 12:04:00,
2013-04-20 07:19:00,45.4,33.0,30.15,NE,53,0.0,-999.0,62,-99.99,,,0.00,weatherlink.com 1.10,2013-04-20 12:19:00,
2013-04-20 07:34:00,46.4,33.0,30.16,NE,53,0.0,-999.0,61,-99.99,,,0.00,weatherlink.com 1.10,2013-04-20 12:34:00,
2013-04-20 07:49:00,47.7,34.0,30.17,NE,53,0.0,-999.0,60,-99.99,,,0.00,weatherlink.com 1.10,2013-04-20 12:49:00,
2013-04-20 08:04:00,49.8,35.0,30.16,NE,52,0.0,-999.0,58,-99.99,,,0.00,weatherlink.com 1.10,2013-04-20 13:04:00,
2013-04-20 08:19:00,52.0,36.0,30.17,NE,53,0.0,-999.0,54,-99.99,,,0.00,weatherlink.com 1.10,2013-04-20 13:19:00,
2013-04-20 08:34:00,54.1,35.0,30.17,NE,53,0.0,-999.0,49,-99.99,,,0.00,weatherlink.com 1.10,2013-04-20 13:34:00,
2013-04-20 08:49:00,56.2,36.0,30.18,NE,53,0.0,-999.0,47,-99.99,,,0.00,weatherlink.com 1.10,2013-04-20 13:49:00,
2013-04-20 09:04:00,57.7,37.0,30.18,NE,55,1.0,-999.0,46,-99.99,,,0.00,weatherlink.com 1.10,2013-04-20 14:04:00,
2013-04-20 09:20:00,58.0,34.0,30.18,WSW,242,0.0,-999.0,41,-99.99,,,0.00,weatherlink.com 1.10,2013-04-20 14:20:00,
2013-04-20 09:35:00,59.0,35.0,30.18,West,261,0.0,-999.0,41,-99.99,,,0.00,weatherlink.com 1.10,2013-04-20 14:35:00,
2013-04-20 09:50:00,60.7,35.0,30.19,WSW,238,0.0,-999.0,39,-99.99,,,0.00,weatherlink.com 1.10,2013-04-20 14:50:00,
2013-04-20 10:05:00,61.5,35.0,30.19,SE,140,0.0,-999.0,38,-99.99,,,0.00,weatherlink.com 1.10,2013-04-20 15:05:00,
2013-04-20 10:20:00,63.3,36.0,30.19,SSE,153,0.0,-999.0,37,-99.99,,,0.00,weatherlink.com 1.10,2013-04-20 15:20:00,
2013-04-20 10:35:00,64.3,35.0,30.19,East,94,0.0,-999.0,34,-99.99,,,0.00,weatherlink.com 1.10,2013-04-20 15:35:00,
2013-04-20 10:50:00,64.0,36.0,30.20,SSW,210,0.0,-999.0,35,-99.99,,,0.00,weatherlink.com 1.10,2013-04-20 15:50:00,
2013-04-20 11:05:00,64.3,35.0,30.20,South,179,0.0,-999.0,34,-99.99,,,0.00,weatherlink.com 1.10,2013-04-20 16:05:00,
2013-04-20 11:20:00,65.0,35.0,30.19,ESE,119,0.0,-999.0,33,-99.99,,,0.00,weatherlink.com 1.10,2013-04-20 16:20:00,
2013-04-20 11:35:00,66.5,35.0,30.19,SSE,154,0.0,-999.0,31,-99.99,,,0.00,weatherlink.com 1.10,2013-04-20 16:35:00,
2013-04-20 11:50:00,66.3,35.0,30.18,WSW,245,0.0,-999.0,31,-99.99,,,0.00,weatherlink.com 1.10,2013-04-20 16:50:00,
2013-04-20 12:05:00,66.5,36.0,30.18,ESE,117,0.0,-999.0,32,-99.99,,,0.00,weatherlink.com 1.10,2013-04-20 17:05:00,
2013-04-20 12:20:00,66.7,37.0,30.16,ENE,72,4.0,-999.0,33,-99.99,,,0.00,weatherlink.com 1.10,2013-04-20 17:20:00,
2013-04-20 12:35:00,67.8,39.0,30.16,ENE,66,9.0,-999.0,35,-99.99,,,0.00,weatherlink.com 1.10,2013-04-20 17:35:00,
2013-04-20 12:50:00,67.9,38.0,30.15,SE,136,0.0,-999.0,34,-99.99,,,0.00,weatherlink.com 1.10,2013-04-20 17:50:00,
2013-04-20 13:05:00,68.5,39.0,30.14,ESE,117,2.0,-999.0,34,-99.99,,,0.00,weatherlink.com 1.10,2013-04-20 18:05:00,
2013-04-20 13:20:00,70.0,40.0,30.13,SSE,148,0.0,-999.0,34,-99.99,,,0.00,weatherlink.com 1.10,2013-04-20 18:20:00,
2013-04-20 13:35:00,70.6,38.0,30.12,ESE,105,0.0,-999.0,31,-99.99,,,0.00,weatherlink.com 1.10,2013-04-20 18:35:00,
2013-04-20 13:50:00,70.3,38.0,30.11,South,179,0.0,-999.0,31,-99.99,,,0.00,weatherlink.com 1.10,2013-04-20 18:50:00,
2013-04-20 14:05:00,71.0,38.0,30.10,ESE,106,1.0,-999.0,30,-99.99,,,0.00,weatherlink.com 1.10,2013-04-20 19:05:00,
2013-04-20 14:20:00,71.2,37.0,30.10,ESE,123,2.0,-999.0,29,-99.99,,,0.00,weatherlink.com 1.10,2013-04-20 19:20:00,
2013-04-20 14:35:00,70.3,35.0,30.09,SE,134,0.0,-999.0,27,-99.99,,,0.00,weatherlink.com 1.10,2013-04-20 19:35:00,
2013-04-20 14:50:00,71.0,35.0,30.08,SSE,153,0.0,-999.0,27,-99.99,,,0.00,weatherlink.com 1.10,2013-04-20 19:50:00,
2013-04-20 15:05:00,70.6,38.0,30.07,East,96,2.0,-999.0,30,-99.99,,,0.00,weatherlink.com 1.10,2013-04-20 20:05:00,
2013-04-20 15:20:00,71.0,35.0,30.06,SSE,155,0.0,-999.0,27,-99.99,,,0.00,weatherlink.com 1.10,2013-04-20 20:20:00,
2013-04-20 15:35:00,71.8,37.0,30.05,South,176,0.0,-999.0,28,-99.99,,,0.00,weatherlink.com 1.10,2013-04-20 20:35:00,
2013-04-20 15:50:00,72.2,39.0,30.05,SE,128,0.0,-999.0,30,-99.99,,,0.00,weatherlink.com 1.10,2013-04-20 20:50:00,
2013-04-20 16:05:00,71.8,38.0,30.04,SSW,194,1.0,-999.0,29,-99.99,,,0.00,weatherlink.com 1.10,2013-04-20 21:05:00,
2013-04-20 16:20:00,69.9,33.0,30.04,East,101,13.0,-999.0,26,-99.99,,,0.00,weatherlink.com 1.10,2013-04-20 21:20:00,
2013-04-20 16:35:00,70.3,33.0,30.04,ESE,116,4.0,-999.0,25,-99.99,,,0.00,weatherlink.com 1.10,2013-04-20 21:35:00,
2013-04-20 16:51:00,70.4,34.0,30.03,NNE,23,0.0,-999.0,26,-99.99,,,0.00,weatherlink.com 1.10,2013-04-20 21:51:00,
2013-04-20 17:06:00,70.7,35.0,30.02,SE,144,0.0,-999.0,27,-99.99,,,0.00,weatherlink.com 1.10,2013-04-20 22:06:00,
2013-04-20 17:21:00,70.4,37.0,30.02,SE,142,8.0,-999.0,29,-99.99,,,0.00,weatherlink.com 1.10,2013-04-20 22:21:00,
2013-04-20 17:36:00,70.0,35.0,30.02,East,101,9.0,-999.0,28,-99.99,,,0.00,weatherlink.com 1.10,2013-04-20 22:36:00,
2013-04-20 17:51:00,70.4,36.0,30.01,ESE,116,0.0,-999.0,28,-99.99,,,0.00,weatherlink.com 1.10,2013-04-20 22:51:00,
2013-04-20 18:06:00,70.7,35.0,30.01,East,84,0.0,-999.0,27,-99.99,,,0.00,weatherlink.com 1.10,2013-04-20 23:06:00,
2013-04-20 18:21:00,69.4,35.0,30.01,South,175,1.0,-999.0,28,-99.99,,,0.00,weatherlink.com 1.10,2013-04-20 23:21:00,
2013-04-20 18:36:00,69.5,35.0,30.01,East,91,4.0,-999.0,28,-99.99,,,0.00,weatherlink.com 1.10,2013-04-20 23:36:00,
2013-04-20 18:51:00,68.8,34.0,30.02,SSE,147,0.0,-999.0,28,-99.99,,,0.00,weatherlink.com 1.10,2013-04-20 23:51:00,
2013-04-20 19:06:00,68.4,35.0,30.01,SE,140,0.0,-999.0,29,-99.99,,,0.00,weatherlink.com 1.10,2013-04-21 00:06:00,
2013-04-20 19:21:00,67.7,33.0,30.02,ESE,119,0.0,-999.0,28,-99.99,,,0.00,weatherlink.com 1.10,2013-04-21 00:21:00,
2013-04-20 19:36:00,67.0,34.0,30.02,ESE,109,4.0,-999.0,30,-99.99,,,0.00,weatherlink.com 1.10,2013-04-21 00:36:00,
2013-04-20 19:51:00,65.9,34.0,30.02,SE,144,0.0,-999.0,30,-99.99,,,0.00,weatherlink.com 1.10,2013-04-21 00:51:00,
2013-04-20 20:06:00,65.1,34.0,30.03,SE,128,0.0,-999.0,31,-99.99,,,0.00,weatherlink.com 1.10,2013-04-21 01:06:00,
2013-04-20 20:21:00,64.3,34.0,30.04,SE,140,0.0,-999.0,32,-99.99,,,0.00,weatherlink.com 1.10,2013-04-21 01:21:00,
2013-04-20 20:36:00,63.8,33.0,30.05,SE,134,0.0,-999.0,32,-99.99,,,0.00,weatherlink.com 1.10,2013-04-21 01:36:00,
2013-04-20 20:51:00,63.2,33.0,30.05,SE,134,0.0,-999.0,33,-99.99,,,0.00,weatherlink.com 1.10,2013-04-21 01:51:00,
2013-04-20 21:06:00,62.5,34.0,30.06,SE,134,0.0,-999.0,34,-99.99,,,0.00,weatherlink.com 1.10,2013-04-21 02:06:00,
2013-04-20 21:21:00,62.0,34.0,30.07,SE,129,0.0,-999.0,35,-99.99,,,0.00,weatherlink.com 1.10,2013-04-21 02:21:00,
2013-04-20 21:36:00,61.5,34.0,30.07,SE,128,0.0,-999.0,36,-99.99,,,0.00,weatherlink.com 1.10,2013-04-21 02:36:00,
2013-04-20 21:51:00,61.0,34.0,30.08,SE,129,0.0,-999.0,37,-99.99,,,0.00,weatherlink.com 1.10,2013-04-21 02:51:00,
2013-04-20 22:06:00,60.7,34.0,30.09,SE,136,0.0,-999.0,37,-99.99,,,0.00,weatherlink.com 1.10,2013-04-21 03:06:00,
2013-04-20 22:21:00,60.3,35.0,30.09,ESE,116,0.0,-999.0,39,-99.99,,,0.00,weatherlink.com 1.10,2013-04-21 03:21:00,
2013-04-20 22:36:00,59.7,35.0,30.09,SE,135,0.0,-999.0,40,-99.99,,,0.00,weatherlink.com 1.10,2013-04-21 03:36:00,
2013-04-20 22:51:00,59.4,35.0,30.09,ESE,115,0.0,-999.0,41,-99.99,,,0.00,weatherlink.com 1.10,2013-04-21 03:51:00,
2013-04-20 23:06:00,59.0,36.0,30.09,SE,137,2.0,-999.0,42,-99.99,,,0.00,weatherlink.com 1.10,2013-04-21 04:06:00,
2013-04-20 23:21:00,58.3,36.0,30.08,SE,137,1.0,-999.0,43,-99.99,,,0.00,weatherlink.com 1.10,2013-04-21 04:21:00,
2013-04-20 23:36:00,57.8,36.0,30.08,ESE,121,0.0,-999.0,45,-99.99,,,0.00,weatherlink.com 1.10,2013-04-21 04:36:00,
2013-04-20 23:51:00,57.4,36.0,30.08,ESE,118,0.0,-999.0,45,-99.99,,,0.00,weatherlink.com 1.10,2013-04-21 04:51:00,